Time;durP1;ratioP1;P1;durP2;ratioP2;P2;SDS_P1;SDS_P2;PMS_P1;PMS_P2;Temp;Humidity;BMP_temperature;BMP_pressure;BME280_temperature;BME280_humidity;BME280_pressure;Samples;Min_cycle;Max_cycle;Signal;HPM_P1;HPM_P2
2024/01/18 00:01:13;;;;;;;219.48;7.03;;;;;;;0.53;100.00;90520.53;4989017;28;20066;-77
2024/01/18 00:03:41;;;;;;;93.70;5.07;;;;;;;0.28;100.00;90503.53;5005614;28;20031;-79
2024/01/18 00:06:07;;;;;;;213.75;8.77;;;;;;;0.26;100.00;90517.72;5011830;28;20192;-80
2024/01/18 00:08:33;;;;;;;239.10;9.25;;;;;;;0.16;100.00;90519.34;5000766;28;20522;-78
2024/01/18 00:11:00;;;;;;;13.60;3.85;;;;;;;0.09;100.00;90508.59;4970648;28;20048;-78
2024/01/18 00:13:26;;;;;;;5.50;3.13;;;;;;;0.12;100.00;90517.56;4977541;28;20026;-78
2024/01/18 00:15:52;;;;;;;6.72;2.92;;;;;;;0.11;100.00;90516.03;4983872;28;20066;-77
2024/01/18 00:18:17;;;;;;;4.80;2.65;;;;;;;0.10;100.00;90527.38;4996481;28;20026;-77
2024/01/18 00:20:43;;;;;;;3.60;2.35;;;;;;;0.10;100.00;90520.41;5001444;28;20042;-77
2024/01/18 00:23:11;;;;;;;3.97;2.22;;;;;;;0.12;100.00;90520.91;4993650;28;20536;-77
2024/01/18 00:25:40;;;;;;;3.67;2.17;;;;;;;0.10;100.00;90515.25;4994044;28;20038;-80
2024/01/18 00:28:05;;;;;;;3.03;2.03;;;;;;;0.19;100.00;90533.47;4992990;28;20041;-77
2024/01/18 00:30:31;;;;;;;2.88;1.70;;;;;;;0.22;100.00;90522.63;4987988;28;20034;-76
2024/01/18 00:32:57;;;;;;;2.25;1.33;;;;;;;0.27;100.00;90526.94;4991354;28;20077;-78
2024/01/18 00:35:22;;;;;;;3.50;1.50;;;;;;;0.26;100.00;90520.28;4994292;28;20070;-77
2024/01/18 00:37:48;;;;;;;6.28;2.15;;;;;;;0.30;100.00;90518.72;4999430;28;20037;-78
2024/01/18 00:40:16;;;;;;;5.80;2.13;;;;;;;0.26;100.00;90526.19;4982312;28;20044;-77
2024/01/18 00:42:42;;;;;;;66.35;3.75;;;;;;;0.27;100.00;90537.25;4992813;28;20139;-78
2024/01/18 00:45:07;;;;;;;125.60;6.20;;;;;;;0.30;100.00;90529.00;4981882;28;20050;-80
2024/01/18 00:47:33;;;;;;;8.20;2.95;;;;;;;0.18;100.00;90537.84;5000430;28;20060;-78
2024/01/18 00:49:59;;;;;;;6.47;3.05;;;;;;;0.13;100.00;90540.44;5000721;28;20129;-80
2024/01/18 00:52:24;;;;;;;4.65;2.95;;;;;;;0.12;100.00;90543.31;4983465;28;20037;-79
2024/01/18 00:54:50;;;;;;;4.15;2.53;;;;;;;0.09;100.00;90539.47;4996199;28;20045;-79
2024/01/18 00:57:17;;;;;;;3.33;2.13;;;;;;;0.10;100.00;90535.09;4957427;28;20052;-79
2024/01/18 00:59:43;;;;;;;2.78;1.83;;;;;;;0.16;100.00;90539.16;4966377;28;20125;-79
2024/01/18 01:02:09;;;;;;;2.42;1.55;;;;;;;0.19;100.00;90541.94;4999493;28;20081;-79
2024/01/18 01:04:34;;;;;;;3.05;1.90;;;;;;;0.15;100.00;90543.50;4999566;28;20042;-80
2024/01/18 01:07:00;;;;;;;2.25;1.58;;;;;;;0.22;100.00;90552.75;4989070;28;20490;-79
2024/01/18 01:09:25;;;;;;;2.70;1.60;;;;;;;0.24;100.00;90555.81;4988797;28;20039;-78
2024/01/18 01:11:52;;;;;;;2.55;1.70;;;;;;;0.23;100.00;90559.44;4972009;28;20125;-79
2024/01/18 01:14:18;;;;;;;2.60;1.60;;;;;;;0.26;100.00;90569.19;5000727;28;20441;-79
2024/01/18 01:16:44;;;;;;;3.10;1.77;;;;;;;0.25;100.00;90565.84;4999224;28;20487;-79
2024/01/18 01:19:09;;;;;;;2.92;1.90;;;;;;;0.23;100.00;90564.59;4973309;28;20062;-79
2024/01/18 01:21:35;;;;;;;2.67;1.77;;;;;;;0.26;100.00;90566.59;4973008;28;20022;-79
2024/01/18 01:24:00;;;;;;;2.25;1.55;;;;;;;0.33;100.00;90569.63;4979780;28;20034;-79
2024/01/18 01:26:26;;;;;;;2.72;1.85;;;;;;;0.29;100.00;90568.63;4984413;28;20042;-79
2024/01/18 01:28:51;;;;;;;3.38;2.22;;;;;;;0.31;100.00;90569.91;4981650;28;20106;-79
2024/01/18 01:31:17;;;;;;;51.40;4.05;;;;;;;0.30;100.00;90568.38;4981779;28;20038;-79
2024/01/18 01:33:43;;;;;;;4.28;2.50;;;;;;;0.32;100.00;90570.69;5005210;28;20034;-79
2024/01/18 01:36:08;;;;;;;37.28;3.53;;;;;;;0.56;100.00;90571.50;4976820;28;20031;-78
2024/01/18 01:38:34;;;;;;;251.57;9.07;;;;;;;0.42;100.00;90575.72;5002623;28;20030;-80
2024/01/18 01:41:00;;;;;;;216.85;7.75;;;;;;;0.35;100.00;90583.75;4947940;28;20127;-79
2024/01/18 01:43:27;;;;;;;22.80;3.33;;;;;;;0.28;100.00;90577.41;4981696;28;20038;-79
2024/01/18 01:45:53;;;;;;;4.65;2.80;;;;;;;0.26;100.00;90575.09;4993136;28;20035;-79
2024/01/18 01:48:19;;;;;;;3.72;2.40;;;;;;;0.25;100.00;90575.34;4991115;28;20038;-78
2024/01/18 01:50:46;;;;;;;2.50;1.70;;;;;;;0.19;100.00;90572.81;4981848;28;20026;-79
2024/01/18 01:53:15;;;;;;;2.63;1.70;;;;;;;0.29;100.00;90573.78;4980561;28;20042;-79
2024/01/18 01:55:42;;;;;;;2.95;1.90;;;;;;;0.39;100.00;90581.44;4991847;28;20437;-79
2024/01/18 01:58:10;;;;;;;3.97;1.60;;;;;;;0.40;100.00;90580.38;4979900;28;20380;-79
2024/01/18 02:00:36;;;;;;;1.48;1.23;;;;;;;0.38;100.00;90575.53;4989047;28;20034;-79
2024/01/18 02:03:01;;;;;;;3.53;1.60;;;;;;;0.47;100.00;90580.06;4986913;28;20065;-79
2024/01/18 02:05:27;;;;;;;325.98;8.00;;;;;;;0.38;100.00;90577.31;4980298;28;20383;-79
2024/01/18 02:07:54;;;;;;;545.75;14.18;;;;;;;0.32;100.00;90571.44;4995689;28;20038;-78
2024/01/18 02:10:20;;;;;;;601.60;16.73;;;;;;;0.21;100.00;90577.72;4975255;28;20034;-80
2024/01/18 02:12:48;;;;;;;584.97;17.35;;;;;;;0.22;100.00;90565.59;4989728;28;20126;-80
2024/01/18 02:15:13;;;;;;;703.45;20.10;;;;;;;0.09;100.00;90580.63;4990804;28;20077;-80
2024/01/18 02:17:39;;;;;;;369.35;10.27;;;;;;;0.01;100.00;90572.72;4961132;28;20035;-80
2024/01/18 02:20:05;;;;;;;439.98;11.73;;;;;;;0.02;100.00;90582.72;4996273;28;20023;-78
2024/01/18 02:22:32;;;;;;;285.38;8.40;;;;;;;-0.05;100.00;90565.03;4997185;28;20450;-80
2024/01/18 02:25:08;;;;;;;222.27;7.95;;;;;;;-0.05;100.00;90571.97;4989839;28;20430;-80
2024/01/18 02:27:34;;;;;;;237.60;7.88;;;;;;;-0.01;100.00;90567.84;4997652;28;20049;-79
2024/01/18 02:30:00;;;;;;;397.48;11.60;;;;;;;-0.02;100.00;90556.78;4968648;28;20034;-79
2024/01/18 02:32:25;;;;;;;270.83;7.90;;;;;;;-0.06;100.00;90553.19;4989639;28;20085;-80
2024/01/18 02:34:51;;;;;;;487.00;12.35;;;;;;;-0.12;100.00;90556.84;4997149;28;20035;-80
2024/01/18 02:37:16;;;;;;;337.05;9.23;;;;;;;-0.07;100.00;90561.19;4967526;28;20042;-79
2024/01/18 02:39:42;;;;;;;126.38;5.75;;;;;;;-0.15;100.00;90554.06;4975673;28;20069;-80
2024/01/18 02:42:07;;;;;;;394.27;10.65;;;;;;;-0.32;100.00;90532.03;4995739;28;20203;-81
2024/01/18 02:44:33;;;;;;;84.68;5.38;;;;;;;-0.18;100.00;90547.66;4972340;28;20491;-80
2024/01/18 02:46:59;;;;;;;468.52;11.50;;;;;;;-0.17;100.00;90545.84;4976834;28;20043;-80
2024/01/18 02:49:24;;;;;;;400.63;9.98;;;;;;;-0.27;100.00;90537.16;4979788;28;20027;-80
2024/01/18 02:51:50;;;;;;;343.25;10.35;;;;;;;-0.26;100.00;90530.97;4989033;28;20070;-80
2024/01/18 02:54:15;;;;;;;359.15;9.07;;;;;;;-0.32;100.00;90516.59;4979866;28;20054;-79
2024/01/18 02:56:41;;;;;;;266.75;7.43;;;;;;;-0.23;100.00;90525.28;4977959;28;20464;-80
2024/01/18 02:59:06;;;;;;;250.55;6.70;;;;;;;-0.28;100.00;90524.56;4992755;28;20040;-80
2024/01/18 03:01:32;;;;;;;187.30;7.47;;;;;;;-0.28;100.00;90527.13;4976775;28;20046;-80
2024/01/18 03:03:57;;;;;;;156.75;6.10;;;;;;;-0.30;100.00;90517.09;4994061;28;20034;-80
2024/01/18 03:06:23;;;;;;;199.45;7.00;;;;;;;-0.29;100.00;90508.38;4971039;28;20042;-79
2024/01/18 03:08:49;;;;;;;145.77;5.93;;;;;;;-0.28;100.00;90504.00;4988295;28;20180;-81
2024/01/18 03:11:15;;;;;;;119.28;5.55;;;;;;;-0.27;100.00;90502.94;4975054;28;20034;-80
2024/01/18 03:13:41;;;;;;;80.88;5.07;;;;;;;-0.29;100.00;90516.09;4988113;28;20062;-79
2024/01/18 03:16:08;;;;;;;84.20;4.32;;;;;;;-0.29;100.00;90515.31;4990018;28;20103;-81
2024/01/18 03:18:34;;;;;;;8.40;3.30;;;;;;;-0.30;100.00;90532.53;4990341;28;20081;-80
2024/01/18 03:21:00;;;;;;;4.40;2.75;;;;;;;-0.32;100.00;90508.88;4985571;28;20034;-81
2024/01/18 03:23:26;;;;;;;4.53;2.50;;;;;;;-0.29;100.00;90492.94;4995416;28;20030;-80
2024/01/18 03:25:51;;;;;;;3.05;1.70;;;;;;;-0.27;100.00;90496.00;4996291;28;20030;-80
2024/01/18 03:28:17;;;;;;;2.85;1.83;;;;;;;-0.24;100.00;90495.47;4994263;28;20041;-80
2024/01/18 03:30:42;;;;;;;3.20;2.00;;;;;;;-0.24;100.00;90510.13;4996278;28;20414;-79
2024/01/18 03:33:08;;;;;;;2.78;1.65;;;;;;;-0.24;100.00;90508.31;4996303;28;20035;-80
2024/01/18 03:35:33;;;;;;;2.47;1.50;;;;;;;-0.26;100.00;90489.81;4996478;28;20038;-80
2024/01/18 03:37:59;;;;;;;1.35;1.10;;;;;;;-0.21;100.00;90476.16;4971312;28;20041;-79
2024/01/18 03:40:24;;;;;;;1.15;1.00;;;;;;;-0.17;100.00;90478.97;4993820;28;20418;-78
2024/01/18 03:42:50;;;;;;;1.20;1.00;;;;;;;-0.14;100.00;90488.72;4988387;28;20035;-78
2024/01/18 03:45:18;;;;;;;1.60;1.30;;;;;;;-0.19;100.00;90471.50;4996474;28;20045;-80
2024/01/18 03:47:43;;;;;;;1.05;1.00;;;;;;;-0.14;100.00;90474.03;4979136;28;20034;-79
2024/01/18 03:50:09;;;;;;;1.05;0.95;;;;;;;-0.11;100.00;90472.72;4977714;28;20073;-78
2024/01/18 03:52:35;;;;;;;1.33;1.20;;;;;;;-0.09;100.00;90479.16;4995507;28;20026;-79
2024/01/18 03:55:00;;;;;;;1.65;1.20;;;;;;;-0.07;100.00;90476.28;4996062;28;20042;-79
2024/01/18 03:57:26;;;;;;;1.17;1.08;;;;;;;-0.09;100.00;90475.78;4995578;28;20080;-79
2024/01/18 03:59:51;;;;;;;1.58;1.13;;;;;;;0.09;100.00;90482.06;4975508;28;20098;-80
2024/01/18 04:02:17;;;;;;;1.27;1.17;;;;;;;0.07;100.00;90482.38;4989506;28;20042;-78
2024/01/18 04:04:42;;;;;;;1.20;1.10;;;;;;;0.03;100.00;90476.22;4996144;28;20149;-80
2024/01/18 04:07:08;;;;;;;1.42;1.17;;;;;;;0.01;100.00;90465.44;4978858;28;20540;-79
2024/01/18 04:09:33;;;;;;;2.00;1.40;;;;;;;-0.03;100.00;90474.72;4994381;28;20063;-80
2024/01/18 04:11:59;;;;;;;1.08;0.98;;;;;;;-0.05;100.00;90475.00;4991290;28;20053;-79
2024/01/18 04:14:25;;;;;;;1.45;1.30;;;;;;;-0.06;100.00;90462.41;4979821;28;20058;-80
2024/01/18 04:16:50;;;;;;;1.27;1.10;;;;;;;-0.07;100.00;90458.28;4991035;28;20113;-80
2024/01/18 04:19:16;;;;;;;4.28;1.48;;;;;;;-0.09;100.00;90463.72;4993064;28;20030;-80
2024/01/18 04:21:43;;;;;;;5.50;1.45;;;;;;;-0.09;100.00;90466.31;4982517;28;20461;-79
2024/01/18 04:24:10;;;;;;;644.08;18.58;;;;;;;-0.15;100.00;90467.38;4994336;28;20042;-79
2024/01/18 04:26:35;;;;;;;331.05;8.48;;;;;;;-0.12;100.00;90459.09;5000242;28;20040;-80
2024/01/18 04:29:02;;;;;;;196.70;6.00;;;;;;;0.05;100.00;90463.84;4982798;28;20409;-79
2024/01/18 04:31:27;;;;;;;384.00;10.10;;;;;;;-0.04;100.00;90460.34;4999596;28;20498;-80
2024/01/18 04:33:55;;;;;;;456.83;11.70;;;;;;;-0.12;100.00;90471.19;4986549;28;20042;-80
2024/01/18 04:36:20;;;;;;;358.70;10.55;;;;;;;-0.04;100.00;90473.19;4968813;28;20061;-80
2024/01/18 04:38:46;;;;;;;274.98;9.18;;;;;;;-0.25;100.00;90481.09;4988391;28;20521;-80
2024/01/18 04:41:11;;;;;;;278.30;8.65;;;;;;;-0.18;100.00;90490.28;4981093;28;20034;-80
2024/01/18 04:43:37;;;;;;;480.70;13.32;;;;;;;-0.22;100.00;90477.22;4981694;28;20060;-79
2024/01/18 04:46:04;;;;;;;203.43;6.63;;;;;;;-0.15;100.00;90471.75;4982778;28;20390;-79
2024/01/18 04:48:30;;;;;;;20.00;2.45;;;;;;;-0.07;100.00;90479.66;4981607;28;20065;-80
2024/01/18 04:50:57;;;;;;;10.13;2.05;;;;;;;-0.14;100.00;90489.47;4997374;28;20509;-79
2024/01/18 04:53:23;;;;;;;27.35;2.83;;;;;;;-0.18;100.00;90503.13;4980523;28;20035;-80
2024/01/18 04:55:49;;;;;;;213.82;6.65;;;;;;;-0.24;100.00;90500.59;4989705;28;20461;-80
2024/01/18 04:58:14;;;;;;;72.22;3.15;;;;;;;0.13;100.00;90491.56;4981212;28;20076;-79
2024/01/18 05:00:40;;;;;;;157.45;4.93;;;;;;;-0.01;100.00;90504.28;4981175;28;20053;-81
2024/01/18 05:03:07;;;;;;;111.68;4.43;;;;;;;-0.10;100.00;90505.13;4980952;28;20061;-80
2024/01/18 05:05:33;;;;;;;274.52;6.93;;;;;;;-0.44;100.00;90475.06;4981583;28;20502;-80
2024/01/18 05:07:58;;;;;;;308.98;7.78;;;;;;;-0.08;100.00;90508.22;4981438;28;20120;-79
2024/01/18 05:10:24;;;;;;;121.82;4.53;;;;;;;-0.20;100.00;90521.44;4981585;28;20113;-80
2024/01/18 05:12:49;;;;;;;137.30;5.18;;;;;;;-0.22;100.00;90538.94;4990737;28;20042;-80
2024/01/18 05:15:15;;;;;;;128.52;4.65;;;;;;;-0.26;100.00;90518.09;4971855;28;20589;-78
2024/01/18 05:17:46;;;;;;;71.30;3.83;;;;;;;-0.24;100.00;90535.84;4981112;28;20085;-79
2024/01/18 05:20:12;;;;;;;40.90;3.05;;;;;;;-0.28;100.00;90521.97;4997718;28;20038;-79
2024/01/18 05:22:38;;;;;;;42.20;3.38;;;;;;;-0.27;100.00;90520.94;4994293;28;20026;-79
2024/01/18 05:25:05;;;;;;;73.50;3.95;;;;;;;-0.27;100.00;90516.59;4978402;28;20464;-80
2024/01/18 05:27:30;;;;;;;24.83;3.25;;;;;;;-0.26;100.00;90530.97;4998639;28;20030;-80
2024/01/18 05:29:57;;;;;;;67.88;3.42;;;;;;;-0.25;100.00;90540.22;4996947;28;20037;-79
2024/01/18 05:32:23;;;;;;;28.65;2.83;;;;;;;-0.24;100.00;90520.41;4997256;28;20043;-78
2024/01/18 05:34:52;;;;;;;41.97;3.35;;;;;;;-0.24;100.00;90518.63;4983587;28;20042;-79
2024/01/18 05:37:18;;;;;;;67.15;3.78;;;;;;;-0.24;100.00;90525.56;5000451;28;20042;-79
2024/01/18 05:39:44;;;;;;;31.10;2.65;;;;;;;-0.23;100.00;90525.28;4992904;28;20083;-79
2024/01/18 05:42:10;;;;;;;72.65;3.53;;;;;;;-0.23;100.00;90522.69;4976370;28;20030;-82
2024/01/18 05:44:36;;;;;;;79.85;3.90;;;;;;;-0.22;100.00;90519.13;4959668;28;20042;-78
2024/01/18 05:47:02;;;;;;;141.38;4.88;;;;;;;-0.25;100.00;90524.81;4992302;28;20122;-80
2024/01/18 05:49:28;;;;;;;5.82;2.58;;;;;;;-0.23;100.00;90539.94;4979212;28;20098;-81
2024/01/18 05:51:53;;;;;;;11.10;2.50;;;;;;;-0.24;100.00;90528.13;4993259;28;20621;-79
2024/01/18 05:54:19;;;;;;;371.42;12.23;;;;;;;-0.15;100.00;90520.63;4993535;28;20069;-78
2024/01/18 11:30:00;;;;;;;3.45;2.15;;;;;;;6.40;100.00;90593.03;4800659;29;20121;-90
2024/01/18 11:32:31;;;;;;;18.33;4.47;;;;;;;6.31;100.00;90611.22;4803540;29;20068;-89
2024/01/18 11:35:11;;;;;;;3.95;2.50;;;;;;;5.94;100.00;90589.91;4802812;29;20089;-89
2024/01/18 11:37:42;;;;;;;3.22;1.98;;;;;;;5.97;100.00;90573.00;4801109;29;20121;-89
2024/01/18 11:40:18;;;;;;;2.78;1.67;;;;;;;5.98;100.00;90549.28;4786219;29;20038;-89
2024/01/18 11:42:47;;;;;;;1.52;1.20;;;;;;;6.12;100.00;90569.94;4801979;29;20069;-89
2024/01/18 11:45:12;;;;;;;2.67;1.50;;;;;;;6.08;100.00;90576.81;4804584;29;20046;-90
2024/01/18 11:47:46;;;;;;;2.40;1.50;;;;;;;6.28;100.00;90588.41;4802998;29;20042;-91
2024/01/18 11:50:17;;;;;;;1.57;1.33;;;;;;;6.39;100.00;90579.25;4787655;29;20042;-90
2024/01/18 11:52:55;;;;;;;2.30;1.40;;;;;;;6.82;100.00;90604.47;4774107;29;20126;-91
2024/01/18 11:55:33;;;;;;;2.55;1.70;;;;;;;6.57;100.00;90571.44;4801039;29;20587;-88
2024/01/18 11:58:01;;;;;;;2.05;1.52;;;;;;;6.85;100.00;90577.84;4803106;29;20097;-89
2024/01/18 12:00:28;;;;;;;1.70;1.20;;;;;;;7.23;100.00;90595.34;4819479;29;20031;-88
2024/01/18 12:02:55;;;;;;;0.90;0.90;;;;;;;7.25;100.00;90567.19;4801694;29;20203;-89
2024/01/18 12:05:24;;;;;;;1.10;1.00;;;;;;;7.32;100.00;90581.53;4803320;29;20056;-89
2024/01/18 12:07:50;;;;;;;1.02;0.93;;;;;;;7.59;100.00;90586.34;4801944;29;20115;-91
2024/01/18 12:10:18;;;;;;;0.85;0.85;;;;;;;7.76;100.00;90589.91;4810412;29;20050;-90
2024/01/18 12:12:50;;;;;;;1.20;1.08;;;;;;;7.91;100.00;90578.97;4801649;29;20505;-89
2024/01/18 12:15:19;;;;;;;1.15;1.00;;;;;;;8.29;100.00;90584.09;4791995;29;20157;-90
2024/01/18 12:17:46;;;;;;;1.35;1.10;;;;;;;8.22;100.00;90565.59;4801077;29;20479;-89
2024/01/18 12:20:20;;;;;;;4.00;2.70;;;;;;;8.38;100.00;90580.66;4799950;29;20459;-90
2024/01/18 12:22:48;;;;;;;2.13;1.40;;;;;;;8.30;100.00;90574.41;4797099;29;20046;-90
2024/01/18 12:25:19;;;;;;;3.85;2.08;;;;;;;7.95;100.00;90573.88;4799937;29;20034;-91
2024/01/18 12:27:45;;;;;;;2.78;1.77;;;;;;;7.61;100.00;90552.94;4769882;29;20418;-91
2024/01/18 12:30:16;;;;;;;2.40;1.70;;;;;;;7.43;100.00;90556.66;4800446;29;20070;-91
2024/01/18 12:32:49;;;;;;;2.22;1.55;;;;;;;7.70;100.00;90569.28;4800101;29;20131;-90
2024/01/18 12:35:19;;;;;;;3.65;1.60;;;;;;;7.99;100.00;90570.31;4797922;29;20046;-91
2024/01/18 12:37:45;;;;;;;1.33;1.10;;;;;;;7.87;100.00;90572.84;4799371;29;20151;-89
2024/01/18 12:40:16;;;;;;;1.92;1.17;;;;;;;7.71;100.00;90577.84;4796901;29;20042;-90
2024/01/18 12:42:49;;;;;;;1.50;1.10;;;;;;;7.70;100.00;90569.28;4796428;29;20038;-90
2024/01/18 12:45:24;;;;;;;1.40;1.10;;;;;;;7.43;100.00;90569.69;4785798;29;20046;-90
2024/01/18 12:47:53;;;;;;;3.17;1.77;;;;;;;7.04;100.00;90542.91;4814119;29;20046;-90
2024/01/18 12:50:21;;;;;;;4.60;2.40;;;;;;;7.24;100.00;90576.03;4800933;29;20042;-91
2024/01/18 12:52:48;;;;;;;1.75;1.20;;;;;;;7.16;100.00;90579.47;4796852;29;20038;-92
2024/01/18 12:55:21;;;;;;;1.98;1.25;;;;;;;7.26;100.00;90575.75;4783341;29;20065;-91
2024/01/18 12:57:52;;;;;;;1.20;1.08;;;;;;;7.13;100.00;90572.25;4802389;29;20038;-91
2024/01/18 13:00:23;;;;;;;1.15;1.05;;;;;;;6.94;100.00;90574.47;4802987;29;20135;-91
2024/01/18 13:02:52;;;;;;;1.00;0.90;;;;;;;6.52;100.00;90558.63;4774199;29;20511;-90
2024/01/18 13:05:18;;;;;;;1.27;1.17;;;;;;;6.34;100.00;90553.44;4800827;29;20034;-91
2024/01/18 13:07:47;;;;;;;1.90;1.30;;;;;;;6.28;100.00;90548.69;4800605;29;20033;-91
2024/01/18 13:10:22;;;;;;;2.15;1.40;;;;;;;6.21;100.00;90547.34;4800198;29;20103;-88
2024/01/18 13:12:54;;;;;;;1.60;1.20;;;;;;;6.46;100.00;90566.59;4795672;29;20046;-92
2024/01/18 13:15:25;;;;;;;1.77;1.20;;;;;;;6.54;100.00;90525.28;4816011;29;20687;-91
2024/01/18 13:17:53;;;;;;;2.78;1.50;;;;;;;6.53;100.00;90528.94;4779786;29;20054;-92
2024/01/18 13:20:24;;;;;;;1.75;1.30;;;;;;;6.57;100.00;90535.81;4812003;29;20460;-90
2024/01/18 13:22:50;;;;;;;1.90;1.30;;;;;;;6.32;100.00;90513.97;4783408;29;20046;-91
2024/01/18 13:25:20;;;;;;;2.35;1.40;;;;;;;6.31;100.00;90548.09;4801980;29;20046;-90
2024/01/18 13:27:46;;;;;;;2.55;1.40;;;;;;;6.25;100.00;90557.88;4770077;29;20423;-91
2024/01/18 13:30:12;;;;;;;1.90;1.30;;;;;;;6.10;100.00;90532.34;4795197;29;20047;-91
2024/01/18 13:32:44;;;;;;;2.17;1.40;;;;;;;6.11;100.00;90552.06;4797208;29;20415;-91
2024/01/18 13:35:24;;;;;;;3.08;1.58;;;;;;;6.21;100.00;90543.94;4797548;29;20102;-91
2024/01/18 13:37:50;;;;;;;2.38;1.50;;;;;;;6.00;100.00;90507.44;4794665;29;20057;-90
2024/01/18 13:40:23;;;;;;;2.72;1.80;;;;;;;6.01;100.00;90511.56;4783231;29;20038;-92
2024/01/18 13:42:56;;;;;;;1.65;1.23;;;;;;;6.16;100.00;90525.94;4812622;29;20399;-92
2024/01/18 13:45:23;;;;;;;3.15;1.60;;;;;;;5.83;100.00;90497.78;4785475;29;20051;-91
2024/01/18 13:47:56;;;;;;;3.10;1.70;;;;;;;5.98;100.00;90545.94;4800195;29;20121;-91
2024/01/18 13:50:24;;;;;;;2.53;1.60;;;;;;;5.67;100.00;90507.06;4799203;29;20214;-91
2024/01/18 13:52:50;;;;;;;2.90;1.50;;;;;;;5.95;100.00;90565.50;4784186;29;20461;-89
2024/01/18 13:55:18;;;;;;;1.75;1.25;;;;;;;6.01;100.00;90559.09;4782318;29;20034;-92
2024/01/18 13:57:46;;;;;;;1.55;1.30;;;;;;;5.73;100.00;90529.22;4772788;29;20519;-92
2024/01/18 14:00:15;;;;;;;2.00;1.40;;;;;;;5.78;100.00;90540.22;4805498;29;20029;-92
2024/01/18 14:02:46;;;;;;;2.67;1.40;;;;;;;5.85;100.00;90542.38;4793696;29;20042;-91
2024/01/18 14:05:22;;;;;;;;;;;;;;;;;;;;;
2024/01/18 14:07:48;;;;;;;2.50;1.60;;;;;;;5.78;100.00;90531.69;4839339;29;20035;-93
2024/01/18 14:10:24;;;;;;;2.80;1.52;;;;;;;5.75;100.00;90537.50;4825612;29;20049;-92
2024/01/18 14:13:01;;;;;;;1.60;1.30;;;;;;;5.90;100.00;90555.22;4810082;29;20077;-92
2024/01/18 14:15:37;;;;;;;1.90;1.30;;;;;;;5.91;100.00;90541.16;4786210;29;20361;-92
2024/01/18 14:18:16;;;;;;;;;;;;;;;;;;;;;
2024/01/18 14:20:50;;;;;;;1.83;1.25;;;;;;;5.89;100.00;90561.47;4799588;29;20261;-92
2024/01/18 14:23:16;;;;;;;3.63;1.30;;;;;;;5.70;100.00;90551.38;4801492;29;20101;-93
2024/01/18 14:25:44;;;;;;;1.52;1.20;;;;;;;5.56;100.00;90550.72;4826369;29;20026;-92
2024/01/18 14:28:13;;;;;;;1.88;1.23;;;;;;;5.50;100.00;90549.34;4801759;29;20038;-92
2024/01/18 14:30:39;;;;;;;1.55;1.23;;;;;;;5.66;100.00;90568.63;4807921;29;20314;-93
2024/01/18 14:33:08;;;;;;;1.63;1.17;;;;;;;5.77;100.00;90582.09;4807302;29;20057;-89
2024/01/18 14:35:47;;;;;;;2.00;1.20;;;;;;;5.86;100.00;90575.06;4821739;29;20044;-92
2024/01/18 14:38:17;;;;;;;2.88;1.17;;;;;;;5.85;100.00;90573.53;4783813;29;20134;-91
2024/01/18 14:40:45;;;;;;;7.95;1.90;;;;;;;6.01;100.00;90587.66;4778253;29;20102;-91
2024/01/18 14:43:18;;;;;;;4.25;1.40;;;;;;;6.00;100.00;90585.34;4766910;29;20050;-92
2024/01/18 14:45:51;;;;;;;1.70;1.38;;;;;;;5.77;100.00;90546.50;4796808;29;23027;-91
2024/01/18 14:48:40;;;;;;;2.28;1.30;;;;;;;5.84;100.00;90570.19;4799935;29;20341;-91
2024/01/18 14:51:13;;;;;;;1.77;1.30;;;;;;;5.78;100.00;90568.78;4780503;29;20504;-92
2024/01/18 14:53:44;;;;;;;1.98;1.40;;;;;;;6.02;100.00;90607.34;4786018;29;20054;-91
2024/01/18 14:56:13;;;;;;;1.40;1.23;;;;;;;5.68;100.00;90569.09;4800781;29;20403;-91
2024/01/18 14:58:39;;;;;;;2.45;1.50;;;;;;;5.87;100.00;90599.97;4787995;29;20053;-91
2024/01/18 15:01:07;;;;;;;1.40;1.20;;;;;;;5.68;100.00;90578.72;4801482;29;20061;-91
2024/01/18 15:03:33;;;;;;;1.70;1.30;;;;;;;5.96;100.00;90582.59;4801137;29;20049;-90
2024/01/18 15:06:16;;;;;;;;;;;;;;;;;;;;;
2024/01/18 15:08:43;;;;;;;1.45;1.10;;;;;;;6.81;100.00;90587.31;4795945;29;20115;-91
2024/01/18 15:11:18;;;;;;;1.70;1.20;;;;;;;7.45;100.00;90596.97;4777497;29;20049;-91
2024/01/18 15:13:49;;;;;;;1.88;1.10;;;;;;;9.00;100.00;90620.81;4799925;29;20611;-92
2024/01/18 15:16:17;;;;;;;1.77;1.10;;;;;;;8.90;100.00;90598.50;4769996;29;20499;-91
2024/01/18 15:18:57;;;;;;;1.30;1.10;;;;;;;8.07;100.00;90581.78;4797620;29;20797;-91
2024/01/18 15:21:30;;;;;;;1.58;1.13;;;;;;;7.50;100.00;90606.44;4776594;29;20046;-91
2024/01/18 15:24:03;;;;;;;1.30;1.00;;;;;;;6.78;100.00;90602.81;4797698;29;20030;-91
2024/01/18 15:26:32;;;;;;;0.82;0.82;;;;;;;6.43;100.00;90603.56;4792889;29;20133;-90
2024/01/18 15:28:58;;;;;;;2.17;1.30;;;;;;;6.20;100.00;90591.78;4797430;29;20046;-91
2024/01/18 15:31:29;;;;;;;1.42;1.10;;;;;;;6.10;100.00;90594.69;4795494;29;20046;-91
2024/01/18 15:34:01;;;;;;;1.50;0.98;;;;;;;5.84;100.00;90579.81;4780602;29;20460;-91
2024/01/18 15:36:37;;;;;;;4.85;2.55;;;;;;;5.97;100.00;90625.69;4796438;29;20472;-93
2024/01/18 15:39:08;;;;;;;2.10;1.40;;;;;;;5.89;100.00;90616.00;4765563;29;20046;-92
2024/01/18 15:41:44;;;;;;;1.35;1.10;;;;;;;5.53;100.00;90608.44;4777530;29;20066;-91
2024/01/18 15:44:19;;;;;;;1.85;1.30;;;;;;;5.30;100.00;90612.94;4783227;29;20070;-91
2024/01/18 15:46:48;;;;;;;1.27;1.17;;;;;;;5.41;100.00;90645.34;4795879;29;20034;-92
2024/01/18 15:49:16;;;;;;;1.15;1.02;;;;;;;5.13;100.00;90621.38;4792540;29;20038;-92
2024/01/18 15:51:47;;;;;;;2.25;1.35;;;;;;;4.94;100.00;90598.25;4802730;29;20111;-90
2024/01/18 15:54:13;;;;;;;3.47;1.65;;;;;;;4.89;100.00;90599.16;4805783;29;20106;-91
2024/01/18 15:56:38;;;;;;;1.92;1.30;;;;;;;5.02;100.00;90623.47;4805437;29;20095;-92
2024/01/18 15:59:04;;;;;;;1.25;0.95;;;;;;;4.82;100.00;90595.44;4824917;29;20038;-90
2024/01/18 16:01:40;;;;;;;2.05;1.33;;;;;;;4.79;100.00;90617.53;4828724;29;20079;-93
2024/01/18 16:04:11;;;;;;;1.73;1.30;;;;;;;4.67;100.00;90631.03;4798001;29;20054;-90
2024/01/18 16:06:37;;;;;;;3.45;1.63;;;;;;;4.53;100.00;90620.72;4785943;29;20043;-91
2024/01/18 16:09:08;;;;;;;3.47;1.70;;;;;;;4.67;100.00;90649.19;4796193;29;20038;-92
2024/01/18 16:11:46;;;;;;;4.25;2.55;;;;;;;4.35;100.00;90617.25;4798384;29;20042;-92
2024/01/18 16:14:16;;;;;;;5.10;3.10;;;;;;;4.51;100.00;90653.94;4786394;29;20081;-93
2024/01/18 16:16:47;;;;;;;6.38;3.72;;;;;;;4.17;100.00;90618.94;4818338;29;20046;-92
2024/01/18 16:19:18;;;;;;;4.57;2.20;;;;;;;4.39;100.00;90669.25;4789847;29;20051;-91
2024/01/18 16:21:46;;;;;;;2.38;1.52;;;;;;;4.11;100.00;90645.22;4799987;29;20149;-92
2024/01/18 16:24:18;;;;;;;4.60;2.63;;;;;;;4.16;100.00;90660.66;4778338;29;20088;-92
2024/01/18 16:26:45;;;;;;;6.00;3.72;;;;;;;3.94;100.00;90633.66;4756943;29;20070;-90
2024/01/18 16:29:18;;;;;;;12.27;8.25;;;;;;;4.15;100.00;90672.06;4787327;29;20082;-91
2024/01/18 16:31:49;;;;;;;7.00;4.05;;;;;;;3.88;100.00;90632.22;4809787;29;20043;-91
2024/01/18 16:34:29;;;;;;;4.40;2.30;;;;;;;3.84;100.00;90636.44;4798393;29;20041;-92
2024/01/18 16:36:55;;;;;;;3.85;2.10;;;;;;;3.79;100.00;90639.13;4799321;29;20053;-91
2024/01/18 16:39:21;;;;;;;4.03;2.40;;;;;;;3.87;100.00;90671.34;4799070;29;20388;-92
2024/01/18 16:41:57;;;;;;;4.85;2.75;;;;;;;4.01;100.00;90697.22;4797050;29;20045;-92
2024/01/18 16:44:25;;;;;;;7.40;3.33;;;;;;;3.90;100.00;90681.88;4791554;29;20549;-91
2024/01/18 16:46:56;;;;;;;4.63;2.42;;;;;;;3.80;100.00;90671.72;4795384;29;20130;-91
2024/01/18 16:49:27;;;;;;;3.90;2.40;;;;;;;3.81;100.00;90677.69;4796367;29;20057;-93
2024/01/18 16:51:53;;;;;;;3.28;1.90;;;;;;;3.68;100.00;90663.69;4808470;29;20511;-92
2024/01/18 16:54:21;;;;;;;2.63;1.52;;;;;;;3.60;100.00;90652.16;4780849;29;20030;-90
2024/01/18 16:56:47;;;;;;;2.35;1.30;;;;;;;3.82;100.00;90684.38;4779773;29;20484;-90
2024/01/18 16:59:21;;;;;;;2.55;1.40;;;;;;;3.64;100.00;90652.38;4782819;29;20042;-89
2024/01/18 17:01:51;;;;;;;3.13;1.80;;;;;;;3.62;100.00;90654.47;4795319;29;20039;-92
2024/01/18 17:04:17;;;;;;;3.45;2.00;;;;;;;3.81;100.00;90688.03;4798247;29;20057;-91
2024/01/18 17:06:44;;;;;;;3.03;1.75;;;;;;;3.74;100.00;90681.41;4747903;29;20043;-91